Time;durP1;ratioP1;P1;durP2;ratioP2;P2;SDS_P1;SDS_P2;PMS_P1;PMS_P2;Temp;Humidity;BMP_temperature;BMP_pressure;BME280_temperature;BME280_humidity;BME280_pressure;Samples;Min_cycle;Max_cycle;Signal;HPM_P1;HPM_P2
2023/09/01 00:01:25;;;;;;;0.63;0.63;;;;;;;20.89;nan;61764.91;5031721;28;20191;-67
2023/09/01 00:03:51;;;;;;;0.50;0.50;;;;;;;20.92;nan;61877.97;5031495;28;20784;-66
2023/09/01 00:06:17;;;;;;;0.70;0.70;;;;;;;20.94;nan;61838.09;5031577;28;20183;-68
2023/09/01 00:08:45;;;;;;;0.50;0.50;;;;;;;21.00;nan;61661.03;5033602;28;20314;-64
2023/09/01 00:11:11;;;;;;;0.70;0.70;;;;;;;20.76;nan;61613.09;5031316;28;20183;-66
2023/09/01 00:13:37;;;;;;;0.60;0.60;;;;;;;20.71;nan;61582.03;5032588;28;20235;-65
2023/09/01 00:16:02;;;;;;;1.95;1.23;;;;;;;20.81;nan;61584.97;5035202;28;20217;-67
2023/09/01 00:18:30;;;;;;;3.55;1.23;;;;;;;20.72;nan;61702.59;5035309;28;20195;-68
2023/09/01 00:21:03;;;;;;;0.45;0.45;;;;;;;20.77;nan;61601.22;5035096;28;20175;-67
2023/09/01 00:23:29;;;;;;;0.60;0.60;;;;;;;20.76;nan;61550.19;5034997;28;20816;-65
2023/09/01 00:25:56;;;;;;;0.85;0.85;;;;;;;20.71;nan;61573.66;5034697;28;20172;-65
2023/09/01 00:28:22;;;;;;;1.17;1.13;;;;;;;20.71;nan;61618.38;5033528;28;20613;-66
2023/09/01 00:30:52;;;;;;;0.40;0.40;;;;;;;20.79;nan;61839.81;5034656;28;20251;-67
2023/09/01 00:33:17;;;;;;;0.30;0.30;;;;;;;21.00;nan;61655.84;5034737;28;20171;-68
2023/09/01 00:35:43;;;;;;;0.52;0.52;;;;;;;21.21;nan;61714.91;5033473;28;20720;-66
2023/09/01 00:38:08;;;;;;;0.50;0.50;;;;;;;21.30;nan;61792.69;5034399;28;20217;-64
2023/09/01 00:40:33;;;;;;;0.85;0.85;;;;;;;21.08;nan;61711.69;5033871;28;20183;-67
2023/09/01 00:42:59;;;;;;;0.50;0.50;;;;;;;21.15;nan;61735.22;5034360;28;20171;-65
2023/09/01 00:45:24;;;;;;;0.50;0.50;;;;;;;20.91;nan;61787.94;5034092;28;20269;-66
2023/09/01 00:47:50;;;;;;;0.50;0.50;;;;;;;19.41;nan;63193.75;5036395;28;20231;-65
2023/09/01 00:50:15;;;;;;;0.43;0.43;;;;;;;20.73;nan;61562.94;5042787;28;20187;-66
2023/09/01 00:52:41;;;;;;;0.70;0.70;;;;;;;21.04;nan;61735.72;5040777;28;20233;-65
2023/09/01 00:55:07;;;;;;;0.40;0.40;;;;;;;20.77;nan;61681.16;5041532;28;20184;-65
2023/09/01 00:57:32;;;;;;;0.70;0.70;;;;;;;20.72;nan;61772.13;5040709;28;20191;-65
2023/09/01 00:59:58;;;;;;;0.40;0.40;;;;;;;20.85;nan;61711.56;5040620;28;20704;-68
2023/09/01 01:02:24;;;;;;;0.50;0.50;;;;;;;20.57;nan;61614.94;5038210;28;20226;-67
2023/09/01 01:04:50;;;;;;;0.82;0.82;;;;;;;20.70;nan;61691.97;5041399;28;20210;-66
2023/09/01 01:07:27;;;;;;;0.65;0.65;;;;;;;20.58;nan;61634.78;5037209;28;20579;-64
2023/09/01 01:10:06;;;;;;;0.50;0.50;;;;;;;20.47;nan;61707.41;5033720;28;20551;-65
2023/09/01 01:12:46;;;;;;;0.70;0.70;;;;;;;20.19;nan;61544.47;5035890;28;20179;-65
2023/09/01 01:15:14;;;;;;;0.98;0.98;;;;;;;20.11;nan;61737.75;5036323;28;20179;-64
2023/09/01 01:17:43;;;;;;;0.50;0.50;;;;;;;20.18;nan;61621.16;5040528;28;20568;-65
2023/09/01 01:20:13;;;;;;;0.60;0.60;;;;;;;20.13;nan;61688.13;5041757;28;20638;-68
2023/09/01 01:22:43;;;;;;;0.88;0.88;;;;;;;20.17;nan;61599.25;5037791;28;20179;-66
2023/09/01 01:25:11;;;;;;;0.50;0.50;;;;;;;20.15;nan;61658.72;5032503;28;20214;-67
2023/09/01 01:27:38;;;;;;;0.43;0.40;;;;;;;19.93;nan;61535.22;5040348;28;20662;-67
2023/09/01 01:30:05;;;;;;;0.77;0.77;;;;;;;20.13;nan;61851.56;5035247;28;20202;-67
2023/09/01 01:32:31;;;;;;;0.57;0.57;;;;;;;20.22;nan;61610.13;5040953;28;20198;-65
2023/09/01 01:35:04;;;;;;;0.50;0.50;;;;;;;19.98;nan;61847.47;5040297;28;20182;-67
2023/09/01 01:37:39;;;;;;;0.40;0.40;;;;;;;19.96;nan;61580.09;5041004;28;20658;-67
2023/09/01 01:40:07;;;;;;;0.55;0.55;;;;;;;17.39;nan;63082.88;5039801;28;20282;-68
2023/09/01 01:42:36;;;;;;;0.50;0.50;;;;;;;19.87;nan;61575.66;5041076;28;20194;-67
2023/09/01 01:45:02;;;;;;;0.40;0.40;;;;;;;19.90;nan;61571.28;5039029;28;20241;-68
2023/09/01 01:47:28;;;;;;;0.50;0.50;;;;;;;19.92;nan;61711.00;5039034;28;20183;-66
2023/09/01 01:49:54;;;;;;;0.65;0.65;;;;;;;19.84;nan;61696.72;5038523;28;20534;-65
2023/09/01 01:52:19;;;;;;;0.70;0.70;;;;;;;19.75;nan;61707.81;5038376;28;20183;-64
2023/09/01 01:54:45;;;;;;;0.70;0.70;;;;;;;19.69;nan;61493.06;5040183;28;20183;-67
2023/09/01 01:57:14;;;;;;;0.40;0.40;;;;;;;19.63;nan;61491.47;5036356;28;20182;-66
2023/09/01 01:59:40;;;;;;;0.40;0.40;;;;;;;19.67;nan;61558.78;5041148;28;20179;-67
2023/09/01 02:02:05;;;;;;;0.85;0.85;;;;;;;19.67;nan;61516.72;5040995;28;20545;-66
2023/09/01 02:04:31;;;;;;;0.50;0.50;;;;;;;19.45;nan;61528.13;5039355;28;20210;-64
2023/09/01 02:06:57;;;;;;;0.40;0.40;;;;;;;19.63;nan;61564.03;5040102;28;20197;-65
2023/09/01 02:09:22;;;;;;;0.60;0.60;;;;;;;19.39;nan;61501.72;5041073;28;20179;-64
2023/09/01 02:11:47;;;;;;;1.00;1.00;;;;;;;19.61;nan;61445.13;5036278;28;20261;-67
2023/09/01 02:14:13;;;;;;;0.40;0.40;;;;;;;19.58;nan;61478.03;5035442;28;20740;-65
2023/09/01 02:16:39;;;;;;;0.57;0.57;;;;;;;19.58;nan;61527.28;5042599;28;20193;-67
2023/09/01 02:19:05;;;;;;;0.75;0.75;;;;;;;19.31;nan;61619.03;5039330;28;20661;-66
2023/09/01 02:21:30;;;;;;;0.65;0.65;;;;;;;19.21;nan;61577.19;5035030;28;20518;-64
2023/09/01 02:23:56;;;;;;;0.50;0.50;;;;;;;19.26;nan;61396.34;5037395;28;20195;-64
2023/09/01 02:26:22;;;;;;;0.73;0.73;;;;;;;19.06;nan;61453.44;5032709;28;20205;-64
2023/09/01 02:28:49;;;;;;;0.57;0.57;;;;;;;19.15;nan;61490.09;5036973;28;20183;-65
2023/09/01 02:31:15;;;;;;;0.85;0.85;;;;;;;18.97;nan;61428.31;5039720;28;20185;-67
2023/09/01 02:33:42;;;;;;;0.50;0.50;;;;;;;19.01;nan;61478.84;5036776;28;20655;-67
2023/09/01 02:36:26;;;;;;;0.70;0.70;;;;;;;18.93;nan;61502.03;5032886;28;20179;-68
2023/09/01 02:38:53;;;;;;;0.68;0.68;;;;;;;19.04;nan;61431.03;5036369;28;20190;-64
2023/09/01 02:41:19;;;;;;;0.60;0.60;;;;;;;19.22;nan;61485.06;5039007;28;20217;-64
2023/09/01 02:43:45;;;;;;;0.95;0.95;;;;;;;19.23;nan;61630.69;5038863;28;20217;-67
2023/09/01 02:46:10;;;;;;;0.50;0.50;;;;;;;19.40;nan;61653.13;5038320;28;20301;-67
2023/09/01 02:48:36;;;;;;;0.50;0.50;;;;;;;19.34;nan;61506.41;5040036;28;20182;-65
2023/09/01 02:51:01;;;;;;;0.40;0.40;;;;;;;19.16;nan;61563.19;5035008;28;20183;-66
2023/09/01 02:53:26;;;;;;;0.57;0.57;;;;;;;18.89;nan;61683.91;5036697;28;20557;-63
2023/09/01 02:55:52;;;;;;;0.85;0.85;;;;;;;18.90;nan;61464.41;5031431;28;20202;-66
2023/09/01 02:58:17;;;;;;;0.68;0.68;;;;;;;18.65;nan;61578.44;5040072;28;20170;-65
2023/09/01 03:00:46;;;;;;;0.68;0.68;;;;;;;18.83;nan;61715.91;5038105;28;20195;-66
2023/09/01 03:03:12;;;;;;;1.35;1.25;;;;;;;18.35;nan;61550.75;5033433;28;20185;-66
2023/09/01 03:05:37;;;;;;;0.80;0.80;;;;;;;18.53;nan;61646.22;5036881;28;20206;-64
2023/09/01 03:08:03;;;;;;;0.68;0.68;;;;;;;18.57;nan;61440.59;5037738;28;20246;-64
2023/09/01 03:10:29;;;;;;;1.23;1.15;;;;;;;18.47;nan;61411.72;5033957;28;20574;-67
2023/09/01 03:12:54;;;;;;;0.70;0.70;;;;;;;18.20;nan;61365.09;5038949;28;20183;-67
2023/09/01 03:15:21;;;;;;;0.63;0.63;;;;;;;18.16;nan;61275.84;5034250;28;20211;-66
2023/09/01 03:17:46;;;;;;;0.50;0.50;;;;;;;18.36;nan;61448.41;5038796;28;20187;-66
2023/09/01 03:20:12;;;;;;;0.70;0.70;;;;;;;18.30;nan;61392.50;5031380;28;20176;-65
2023/09/01 03:22:38;;;;;;;0.50;0.50;;;;;;;16.12;nan;61323.84;5039067;28;20241;-67
2023/09/01 03:25:09;;;;;;;0.43;0.43;;;;;;;18.18;nan;61474.59;5035333;28;20344;-66
2023/09/01 03:27:44;;;;;;;0.57;0.57;;;;;;;18.31;nan;61390.47;5039268;28;20639;-64
2023/09/01 03:30:13;;;;;;;0.70;0.70;;;;;;;18.13;nan;61344.28;5039680;28;20198;-66
2023/09/01 03:32:38;;;;;;;0.70;0.70;;;;;;;18.16;nan;61340.47;5039376;28;20191;-67
2023/09/01 03:35:04;;;;;;;3.13;1.20;;;;;;;18.38;nan;61398.94;5039128;28;20202;-63
2023/09/01 03:37:31;;;;;;;0.60;0.60;;;;;;;18.42;nan;61419.00;5037220;28;20341;-64
2023/09/01 03:39:56;;;;;;;0.50;0.50;;;;;;;18.79;nan;61728.94;5031504;28;20302;-64
2023/09/01 03:42:22;;;;;;;0.65;0.65;;;;;;;18.81;nan;61456.81;5039668;28;20670;-67
2023/09/01 03:44:47;;;;;;;0.60;0.60;;;;;;;18.68;nan;61493.88;5034806;28;20195;-66
2023/09/01 03:47:13;;;;;;;0.80;0.80;;;;;;;18.74;nan;61733.59;5039612;28;20183;-66
2023/09/01 03:49:38;;;;;;;0.40;0.40;;;;;;;18.80;nan;61541.66;5041274;28;20179;-65
2023/09/01 03:52:04;;;;;;;0.60;0.60;;;;;;;18.81;nan;61441.28;5043825;28;20578;-64
2023/09/01 03:54:29;;;;;;;0.50;0.50;;;;;;;18.47;nan;61569.53;5037755;28;20179;-63
2023/09/01 03:56:55;;;;;;;0.68;0.68;;;;;;;18.92;nan;61752.03;5044731;28;20661;-65
2023/09/01 03:59:21;;;;;;;0.55;0.55;;;;;;;17.98;nan;61493.34;5048497;28;20186;-64
2023/09/01 04:01:47;;;;;;;0.70;0.70;;;;;;;18.90;nan;61492.88;5047890;28;20175;-65
2023/09/01 04:04:13;;;;;;;0.60;0.60;;;;;;;16.24;nan;61206.50;5043875;28;20206;-63
2023/09/01 04:06:40;;;;;;;0.70;0.70;;;;;;;18.72;nan;61451.81;5047449;28;20190;-63
2023/09/01 04:09:05;;;;;;;0.70;0.70;;;;;;;18.54;nan;61484.31;5036551;28;20289;-65
2023/09/01 04:11:31;;;;;;;0.70;0.70;;;;;;;18.72;nan;61560.50;5049111;28;20175;-65
2023/09/01 04:13:57;;;;;;;0.68;0.68;;;;;;;18.66;nan;61579.59;5039744;28;20190;-64
2023/09/01 04:16:24;;;;;;;0.70;0.70;;;;;;;19.15;nan;61489.53;5034086;28;20210;-66
2023/09/01 04:18:49;;;;;;;0.50;0.50;;;;;;;19.83;nan;61553.56;5034053;28;20187;-67
2023/09/01 04:21:15;;;;;;;0.70;0.70;;;;;;;20.43;nan;61573.13;5041469;28;20190;-66
2023/09/01 04:23:40;;;;;;;0.60;0.60;;;;;;;20.88;nan;61808.47;5041157;28;20293;-66
2023/09/01 04:26:07;;;;;;;0.80;0.80;;;;;;;21.10;nan;61757.53;5037186;28;20183;-64
2023/09/01 04:28:33;;;;;;;0.73;0.73;;;;;;;21.44;nan;61913.16;5045581;28;20179;-64
2023/09/01 04:30:59;;;;;;;0.70;0.70;;;;;;;21.29;nan;61801.94;5041148;28;20253;-64
2023/09/01 04:33:26;;;;;;;0.57;0.57;;;;;;;21.47;nan;61796.38;5040919;28;20610;-64
2023/09/01 04:35:57;;;;;;;0.60;0.60;;;;;;;21.48;nan;61771.53;5040806;28;20294;-65
2023/09/01 04:38:23;;;;;;;4.57;1.58;;;;;;;21.36;nan;61768.31;5042017;28;20201;-68
2023/09/01 04:40:58;;;;;;;0.45;0.45;;;;;;;21.32;nan;62029.47;5044281;28;20269;-65
2023/09/01 04:43:28;;;;;;;0.50;0.50;;;;;;;21.23;nan;61759.31;5041854;28;20240;-65
2023/09/01 04:45:54;;;;;;;0.60;0.60;;;;;;;21.13;nan;61852.47;5037769;28;20221;-64
2023/09/01 04:48:20;;;;;;;0.52;0.52;;;;;;;21.38;nan;61578.78;5041780;28;20187;-67
2023/09/01 04:50:47;;;;;;;2.58;0.90;;;;;;;21.37;nan;61725.25;5043193;28;20198;-66
2023/09/01 04:53:12;;;;;;;0.88;0.88;;;;;;;21.67;nan;61933.53;5043404;28;20185;-65
2023/09/01 04:55:38;;;;;;;0.57;0.57;;;;;;;21.81;nan;61842.81;5042125;28;20654;-67
2023/09/01 04:58:03;;;;;;;0.68;0.65;;;;;;;21.81;nan;61814.19;5040266;28;20191;-66
2023/09/01 05:00:29;;;;;;;0.82;0.82;;;;;;;21.98;nan;61864.16;5041444;28;20166;-65
2023/09/01 05:02:54;;;;;;;0.60;0.60;;;;;;;;;;5043217;28;20193;-66
2023/09/01 05:05:20;;;;;;;0.73;0.73;;;;;;;22.13;nan;61979.53;5041678;28;20254;-65
2023/09/01 05:07:45;;;;;;;0.40;0.40;;;;;;;22.12;nan;61858.69;5042371;28;20701;-67
2023/09/01 05:10:10;;;;;;;0.80;0.80;;;;;;;22.37;nan;61885.06;5041143;28;20672;-65
2023/09/01 05:12:36;;;;;;;0.68;0.68;;;;;;;22.48;nan;61934.00;5040951;28;20182;-65
2023/09/01 05:15:03;;;;;;;0.60;0.60;;;;;;;22.65;nan;61928.75;5035291;28;20222;-67
2023/09/01 05:17:29;;;;;;;0.50;0.50;;;;;;;22.72;nan;61911.22;5041069;28;20173;-67
2023/09/01 05:19:57;;;;;;;1.05;1.05;;;;;;;22.84;nan;61948.31;5039878;28;20194;-67
2023/09/01 05:22:22;;;;;;;0.77;0.77;;;;;;;22.78;nan;62217.13;5041213;28;20193;-64
2023/09/01 05:24:49;;;;;;;0.93;0.93;;;;;;;22.81;nan;61960.53;5040876;28;20198;-66
2023/09/01 05:27:15;;;;;;;0.75;0.75;;;;;;;22.89;nan;61992.53;5041125;28;20184;-64
2023/09/01 05:29:41;;;;;;;0.40;0.40;;;;;;;23.05;nan;61927.31;5035462;28;20254;-64
2023/09/01 05:32:07;;;;;;;0.55;0.55;;;;;;;23.20;nan;62064.31;5037498;28;20281;-64
2023/09/01 05:34:32;;;;;;;0.88;0.88;;;;;;;23.01;nan;61979.53;5041524;28;20179;-67
2023/09/01 05:36:58;;;;;;;0.55;0.55;;;;;;;22.93;nan;62105.97;5038909;28;20190;-66
2023/09/01 05:39:23;;;;;;;2.05;1.15;;;;;;;23.18;nan;61954.56;5040795;28;20174;-64
2023/09/01 05:41:49;;;;;;;0.60;0.60;;;;;;;23.38;nan;62024.25;5040093;28;20708;-66
2023/09/01 05:44:14;;;;;;;0.70;0.50;;;;;;;23.37;nan;62035.56;5035670;28;20198;-68
2023/09/01 05:46:39;;;;;;;1.73;0.93;;;;;;;23.48;nan;62063.78;5040800;28;20202;-68
2023/09/01 05:49:05;;;;;;;0.60;0.60;;;;;;;23.68;nan;62087.09;5041787;28;20657;-66
2023/09/01 05:51:30;;;;;;;0.40;0.40;;;;;;;23.96;nan;62232.69;5034634;28;20623;-66
2023/09/01 05:53:55;;;;;;;0.40;0.40;;;;;;;23.89;nan;62084.34;5037035;28;20269;-66
2023/09/01 05:56:21;;;;;;;0.52;0.52;;;;;;;24.10;nan;62123.91;5040578;28;20186;-67
2023/09/01 05:58:47;;;;;;;0.60;0.60;;;;;;;24.19;nan;62157.13;5040128;28;20178;-67
2023/09/01 06:01:13;;;;;;;0.50;0.50;;;;;;;24.16;nan;62073.31;5039866;28;20187;-67
2023/09/01 06:03:39;;;;;;;0.50;0.50;;;;;;;24.40;nan;62165.38;5036552;28;20179;-69
2023/09/01 06:06:07;;;;;;;0.50;0.50;;;;;;;24.41;nan;62271.03;5037889;28;20569;-69
2023/09/01 06:08:32;;;;;;;0.88;0.88;;;;;;;24.62;nan;62203.50;5039546;28;20232;-68
2023/09/01 06:11:05;;;;;;;2.25;1.35;;;;;;;24.56;nan;62198.72;5042245;28;20187;-67
2023/09/01 06:13:30;;;;;;;0.40;0.40;;;;;;;24.89;nan;62220.09;5041177;28;20310;-69
2023/09/01 06:15:56;;;;;;;0.60;0.60;;;;;;;25.13;nan;62254.75;5039298;28;20676;-65
2023/09/01 06:18:21;;;;;;;0.30;0.30;;;;;;;24.99;nan;62262.88;5034775;28;20170;-66
2023/09/01 06:20:46;;;;;;;0.40;0.40;;;;;;;25.13;nan;62278.84;5041336;28;20187;-66
2023/09/01 06:23:12;;;;;;;0.50;0.50;;;;;;;25.07;nan;62272.56;5040725;28;20241;-66
2023/09/01 06:25:37;;;;;;;1.40;0.80;;;;;;;25.14;nan;62366.31;5041068;28;20210;-68
2023/09/01 06:28:03;;;;;;;0.50;0.50;;;;;;;25.11;nan;62255.63;5037103;28;20195;-67
2023/09/01 06:30:29;;;;;;;0.70;0.70;;;;;;;25.10;nan;62385.28;5039956;28;20170;-65
2023/09/01 06:32:54;;;;;;;0.55;0.55;;;;;;;25.33;nan;62277.56;5041592;28;20229;-66
2023/09/01 06:35:20;;;;;;;1.20;1.17;;;;;;;25.25;nan;62273.69;5040166;28;20670;-67
2023/09/01 06:37:45;;;;;;;0.45;0.45;;;;;;;25.29;nan;62393.34;5040410;28;20190;-65
2023/09/01 06:40:11;;;;;;;0.70;0.70;;;;;;;25.28;nan;62282.91;5037656;28;20697;-66
2023/09/01 06:42:36;;;;;;;0.52;0.52;;;;;;;25.36;nan;62218.75;5039954;28;20176;-66
2023/09/01 06:45:03;;;;;;;0.95;0.93;;;;;;;25.47;nan;62377.28;5041479;28;20637;-68
2023/09/01 06:47:29;;;;;;;0.40;0.40;;;;;;;25.72;nan;62337.78;5041024;28;20268;-67
2023/09/01 06:49:54;;;;;;;0.50;0.50;;;;;;;25.64;nan;62568.91;5038077;28;20218;-66
2023/09/01 06:52:19;;;;;;;0.60;0.60;;;;;;;25.60;nan;62307.81;5040250;28;20337;-67
2023/09/01 06:54:45;;;;;;;0.47;0.47;;;;;;;25.73;nan;62351.44;5033381;28;20241;-66
2023/09/01 06:57:10;;;;;;;0.63;0.63;;;;;;;25.94;nan;62404.22;5036431;28;20622;-69
2023/09/01 06:59:36;;;;;;;0.68;0.68;;;;;;;25.90;nan;62379.28;5040836;28;20181;-69
2023/09/01 07:02:02;;;;;;;0.90;0.90;;;;;;;26.12;nan;62432.09;5037817;28;20183;-70
2023/09/01 07:04:28;;;;;;;1.30;1.10;;;;;;;25.81;nan;62386.75;5039485;28;20233;-67
2023/09/01 07:06:53;;;;;;;1.23;1.10;;;;;;;25.78;nan;62472.94;5041569;28;20296;-64
2023/09/01 07:09:18;;;;;;;0.85;0.75;;;;;;;25.87;nan;62496.31;5039653;28;20183;-69
2023/09/01 07:11:44;;;;;;;1.23;1.00;;;;;;;25.82;nan;62474.88;5039908;28;20213;-66
2023/09/01 07:14:09;;;;;;;1.90;1.40;;;;;;;26.00;nan;62441.94;5038171;28;20176;-65
2023/09/01 07:16:35;;;;;;;1.63;1.20;;;;;;;26.05;nan;62367.03;5039526;28;20200;-68
2023/09/01 07:19:00;;;;;;;4.90;2.42;;;;;;;25.82;nan;62459.16;5041519;28;20178;-70
2023/09/01 07:21:25;;;;;;;1.58;0.70;;;;;;;26.21;nan;62473.84;5039300;28;20186;-70
2023/09/01 07:23:51;;;;;;;1.52;1.40;;;;;;;26.29;nan;62423.28;5040239;28;20206;-69
2023/09/01 07:26:17;;;;;;;2.70;1.75;;;;;;;26.28;nan;62422.13;5043967;28;20182;-67
2023/09/01 07:28:43;;;;;;;0.90;0.90;;;;;;;26.30;nan;62416.56;5043435;28;20262;-67
2023/09/01 07:31:12;;;;;;;4.05;2.67;;;;;;;26.25;nan;62653.97;5044248;28;20261;-68
2023/09/01 07:33:41;;;;;;;0.52;0.52;;;;;;;26.22;nan;62613.84;5043429;28;20194;-67
2023/09/01 07:36:09;;;;;;;1.75;1.63;;;;;;;26.22;nan;62328.81;5041554;28;20278;-68
2023/09/01 07:38:35;;;;;;;1.55;1.45;;;;;;;26.42;nan;62560.16;5044209;28;20195;-67
2023/09/01 07:41:00;;;;;;;1.40;1.30;;;;;;;26.63;nan;62443.19;5043827;28;20236;-68
2023/09/01 07:43:25;;;;;;;1.42;1.33;;;;;;;26.81;nan;62497.88;5043014;28;20179;-69
2023/09/01 07:45:51;;;;;;;0.93;0.93;;;;;;;26.53;nan;62444.31;5041753;28;20213;-65
2023/09/01 07:48:16;;;;;;;1.17;0.75;;;;;;;26.87;nan;62472.69;5041921;28;20206;-66
2023/09/01 07:50:42;;;;;;;0.90;0.88;;;;;;;26.85;nan;62485.56;5042523;28;20657;-66
2023/09/01 07:53:07;;;;;;;0.60;0.60;;;;;;;26.75;nan;62579.59;5040718;28;20759;-66
2023/09/01 07:55:33;;;;;;;1.30;1.17;;;;;;;26.08;nan;62514.50;5037685;28;20665;-69
2023/09/01 07:57:59;;;;;;;1.45;0.98;;;;;;;27.13;nan;62520.22;5039925;28;20616;-67
2023/09/01 08:00:24;;;;;;;1.10;0.98;;;;;;;27.34;nan;62583.59;5042235;28;20701;-66
2023/09/01 08:02:50;;;;;;;2.53;1.60;;;;;;;27.49;nan;62597.59;5044101;28;20187;-66
2023/09/01 08:05:15;;;;;;;1.10;1.10;;;;;;;27.39;nan;62594.00;5043596;28;20241;-67
2023/09/01 08:07:41;;;;;;;0.75;0.60;;;;;;;27.63;nan;62590.56;5040633;28;20697;-67
2023/09/01 08:10:09;;;;;;;0.52;0.52;;;;;;;27.76;nan;62722.47;5042371;28;20183;-65
2023/09/01 08:12:34;;;;;;;0.82;0.82;;;;;;;27.66;nan;62569.75;5028481;28;20634;-66
2023/09/01 08:15:00;;;;;;;0.73;0.73;;;;;;;27.86;nan;62642.56;5041508;28;20179;-67
2023/09/01 08:17:25;;;;;;;0.50;0.50;;;;;;;27.99;nan;62607.53;5042428;28;20233;-69
2023/09/01 08:19:50;;;;;;;1.25;1.15;;;;;;;28.28;nan;62795.28;5043766;28;20175;-67
2023/09/01 08:22:17;;;;;;;0.52;0.52;;;;;;;28.09;nan;62682.03;5043651;28;20675;-70
2023/09/01 08:24:45;;;;;;;0.55;0.55;;;;;;;28.22;nan;62751.00;5043723;28;20693;-68
2023/09/01 08:27:11;;;;;;;0.30;0.30;;;;;;;28.22;nan;62693.75;5037120;28;20183;-65
2023/09/01 08:29:38;;;;;;;0.40;0.40;;;;;;;28.09;nan;62726.16;5043385;28;20190;-69
2023/09/01 08:32:05;;;;;;;0.65;0.65;;;;;;;28.27;nan;62809.31;5032676;28;20191;-69
2023/09/01 08:34:31;;;;;;;0.52;0.52;;;;;;;28.22;nan;62724.72;5036449;28;20179;-69
2023/09/01 08:36:57;;;;;;;0.50;0.50;;;;;;;28.55;nan;62725.72;5039847;28;20708;-68
2023/09/01 08:39:22;;;;;;;0.40;0.40;;;;;;;28.58;nan;62771.25;5037630;28;20237;-68
2023/09/01 08:41:50;;;;;;;0.52;0.52;;;;;;;28.30;nan;62641.88;5034241;28;20211;-68
2023/09/01 08:44:20;;;;;;;0.40;0.40;;;;;;;28.64;nan;62772.88;5041539;28;20264;-66
2023/09/01 08:46:46;;;;;;;0.85;0.80;;;;;;;28.73;nan;62772.69;5036748;28;20198;-67
2023/09/01 08:49:12;;;;;;;0.40;0.40;;;;;;;28.82;nan;62798.78;5034772;28;20567;-68
2023/09/01 08:51:41;;;;;;;0.40;0.40;;;;;;;28.74;nan;62839.63;5034398;28;20175;-74
2023/09/01 08:54:07;;;;;;;0.40;0.40;;;;;;;28.86;nan;62876.50;5034384;28;20639;-64
2023/09/01 08:56:34;;;;;;;0.77;0.77;;;;;;;28.90;nan;62789.53;5033892;28;20643;-69
2023/09/01 08:58:59;;;;;;;0.50;0.50;;;;;;;29.30;nan;62842.78;5033668;28;20578;-71
2023/09/01 09:01:24;;;;;;;0.55;0.55;;;;;;;28.88;nan;62897.78;5032807;28;20178;-68
2023/09/01 09:03:50;;;;;;;0.70;0.70;;;;;;;28.97;nan;62833.84;5033259;28;20198;-65
2023/09/01 09:06:16;;;;;;;0.65;0.60;;;;;;;29.09;nan;62904.97;5032174;28;20700;-72
2023/09/01 09:08:42;;;;;;;0.60;0.60;;;;;;;29.18;nan;62958.00;5032478;28;20597;-68
2023/09/01 09:11:15;;;;;;;0.63;0.50;;;;;;;29.47;nan;62967.06;5033103;28;20167;-71
2023/09/01 09:13:40;;;;;;;0.45;0.45;;;;;;;29.24;nan;62914.88;5033308;28;20178;-72
2023/09/01 09:16:09;;;;;;;0.43;0.43;;;;;;;29.15;nan;62899.28;5033528;28;20171;-67
2023/09/01 09:18:53;;;;;;;0.65;0.65;;;;;;;29.02;nan;62836.38;5033383;28;20261;-72
2023/09/01 09:21:24;;;;;;;0.68;0.68;;;;;;;29.17;nan;62864.72;5033360;28;20634;-72
2023/09/01 09:23:50;;;;;;;0.73;0.60;;;;;;;29.25;nan;62960.22;5033058;28;20160;-71
2023/09/01 09:26:15;;;;;;;0.43;0.43;;;;;;;29.63;nan;63016.53;5032995;28;20194;-71
2023/09/01 09:28:40;;;;;;;0.50;0.50;;;;;;;29.82;nan;63004.69;5033246;28;20261;-72
2023/09/01 09:31:07;;;;;;;0.50;0.50;;;;;;;29.82;nan;63044.22;5033206;28;20167;-69
2023/09/01 09:33:34;;;;;;;0.40;0.40;;;;;;;29.53;nan;62979.25;5033141;28;20178;-73
2023/09/01 09:36:01;;;;;;;0.30;0.30;;;;;;;29.62;nan;63025.91;5033252;28;20175;-66
2023/09/01 09:38:50;;;;;;;0.50;0.50;;;;;;;29.67;nan;62897.84;5032730;28;20237;-72
2023/09/01 09:41:16;;;;;;;0.50;0.50;;;;;;;29.71;nan;62981.50;5032963;28;20159;-72
2023/09/01 09:43:46;;;;;;;3.88;0.77;;;;;;;29.80;nan;62957.56;5033072;28;20177;-68
2023/09/01 09:46:12;;;;;;;0.68;0.68;;;;;;;29.65;nan;62947.66;5031964;28;20234;-68
2023/09/01 09:48:39;;;;;;;0.55;0.50;;;;;;;29.94;nan;63054.25;5032754;28;20171;-67
2023/09/01 09:51:07;;;;;;;0.57;0.57;;;;;;;30.25;nan;63037.16;5032804;28;20185;-73
2023/09/01 09:53:38;;;;;;;0.50;0.50;;;;;;;29.89;nan;63143.97;5032350;28;20684;-71
2023/09/01 09:56:19;;;;;;;0.60;0.47;;;;;;;29.74;nan;63013.91;5032753;28;20162;-69
2023/09/01 09:58:48;;;;;;;1.65;1.15;;;;;;;29.74;nan;63010.72;5032600;28;20179;-66
2023/09/01 10:01:18;;;;;;;0.43;0.43;;;;;;;29.72;nan;63048.53;5032591;28;20183;-70
2023/09/01 10:03:44;;;;;;;0.20;0.20;;;;;;;29.88;nan;63031.50;5032589;28;20201;-71
2023/09/01 10:06:10;;;;;;;0.47;0.47;;;;;;;29.89;nan;63016.88;5032570;28;20166;-68
2023/09/01 10:08:38;;;;;;;0.52;0.50;;;;;;;30.10;nan;63083.22;5047512;28;20686;-69
2023/09/01 10:11:07;;;;;;;0.50;0.50;;;;;;;30.22;nan;63075.91;5032679;28;20177;-70
2023/09/01 10:13:32;;;;;;;0.55;0.55;;;;;;;30.42;nan;63001.31;5032130;28;20175;-71
2023/09/01 10:15:59;;;;;;;0.52;0.52;;;;;;;30.60;nan;63148.69;5032223;28;20555;-69
2023/09/01 10:18:26;;;;;;;0.50;0.50;;;;;;;30.44;nan;63008.88;5032148;28;20170;-75
2023/09/01 10:20:52;;;;;;;0.65;0.65;;;;;;;29.96;nan;63172.56;5032093;28;20258;-68
2023/09/01 10:23:17;;;;;;;0.43;0.43;;;;;;;29.96;nan;63009.09;5031994;28;20257;-72
2023/09/01 10:26:14;;;;;;;0.40;0.40;;;;;;;30.12;nan;63043.88;5031888;28;20221;-73
2023/09/01 10:28:56;;;;;;;0.80;0.35;;;;;;;30.11;nan;63047.44;5032548;28;20186;-70
2023/09/01 10:31:23;;;;;;;0.63;0.63;;;;;;;30.08;nan;62972.78;5032016;28;20178;-70
2023/09/01 10:34:22;;;;;;;0.70;0.70;;;;;;;30.16;nan;62969.38;5031563;28;20181;-66
2023/09/01 10:37:20;;;;;;;0.30;0.30;;;;;;;30.39;nan;63055.88;5030432;28;20706;-72
2023/09/01 10:39:45;;;;;;;0.60;0.60;;;;;;;30.41;nan;63063.47;5030246;28;20190;-68
2023/09/01 10:42:11;;;;;;;0.40;0.40;;;;;;;30.61;nan;63027.88;5031961;28;20183;-72
2023/09/01 10:44:39;;;;;;;0.73;0.73;;;;;;;30.72;nan;63140.81;5031775;28;20603;-69
2023/09/01 10:47:32;;;;;;;0.50;0.50;;;;;;;30.75;nan;63162.19;5031343;28;20189;-69
2023/09/01 10:49:59;;;;;;;0.80;0.80;;;;;;;31.00;nan;63143.44;5031749;28;20249;-69
2023/09/01 10:52:28;;;;;;;0.38;0.38;;;;;;;31.10;nan;63247.41;5031962;28;20564;-69
2023/09/01 10:54:59;;;;;;;0.60;0.60;;;;;;;31.39;nan;63228.00;5031338;28;20182;-71
2023/09/01 10:57:43;;;;;;;0.30;0.30;;;;;;;31.17;nan;63123.38;5031548;28;20181;-68
2023/09/01 11:00:26;;;;;;;0.50;0.50;;;;;;;30.86;nan;63204.44;5031900;28;20213;-70
2023/09/01 11:02:52;;;;;;;1.73;1.00;;;;;;;30.47;nan;63028.19;5031564;28;20243;-70
2023/09/01 11:05:37;;;;;;;0.80;0.80;;;;;;;30.58;nan;63056.66;5031404;28;20202;-66
2023/09/01 11:08:17;;;;;;;0.65;0.65;;;;;;;30.24;nan;62975.34;5031237;28;20215;-66
2023/09/01 11:10:43;;;;;;;0.50;0.50;;;;;;;30.12;nan;62974.75;5031547;28;20190;-68
2023/09/01 11:13:19;;;;;;;0.40;0.40;;;;;;;30.27;nan;63040.03;5031606;28;20178;-67
2023/09/01 11:15:48;;;;;;;0.40;0.40;;;;;;;30.32;nan;63060.47;5031690;28;20265;-70
2023/09/01 11:18:19;;;;;;;0.40;0.40;;;;;;;30.34;nan;63123.44;5031101;28;20673;-68
2023/09/01 11:20:47;;;;;;;0.40;0.38;;;;;;;30.60;nan;63121.72;5031551;28;20273;-67
2023/09/01 11:23:13;;;;;;;0.30;0.30;;;;;;;30.66;nan;63079.03;5031548;28;20171;-66
2023/09/01 11:25:39;;;;;;;0.40;0.40;;;;;;;30.37;nan;62985.00;5033304;28;20238;-68
2023/09/01 11:28:05;;;;;;;0.30;0.30;;;;;;;30.38;nan;63125.41;5036274;28;20209;-66
2023/09/01 11:30:30;;;;;;;0.40;0.40;;;;;;;30.08;nan;62993.88;5039297;28;20175;-69
2023/09/01 11:32:56;;;;;;;0.43;0.43;;;;;;;30.05;nan;62940.91;5036871;28;20182;-66
2023/09/01 11:35:29;;;;;;;0.30;0.30;;;;;;;30.35;nan;63017.00;5037126;28;20197;-67
2023/09/01 11:37:56;;;;;;;0.43;0.43;;;;;;;30.57;nan;63149.94;5035663;28;20206;-68
2023/09/01 11:40:24;;;;;;;0.55;0.55;;;;;;;30.59;nan;63187.13;5035197;28;20178;-66
2023/09/01 11:42:50;;;;;;;0.38;0.38;;;;;;;30.71;nan;63037.28;5037062;28;20262;-68
2023/09/01 11:45:15;;;;;;;0.30;0.30;;;;;;;30.68;nan;63075.50;5039101;28;20582;-66
2023/09/01 11:47:41;;;;;;;0.55;0.55;;;;;;;30.98;nan;63170.75;5039871;28;20186;-67
2023/09/01 11:50:12;;;;;;;0.65;0.38;;;;;;;30.97;nan;63103.00;5038434;28;20634;-69
2023/09/01 11:52:55;;;;;;;0.30;0.30;;;;;;;31.13;nan;63153.13;5039370;28;20741;-66